KLM96C LHBP-EHAM
Flight info
| Callsign | KLM96C |
|---|---|
| Flight time | 1h 46m |
| Altitude | 38000 |
| Route | BADOV DCT MAVOR DCT KATQA DCT KILNU DCT KATCE DCT EXOBA DCT NORKU |
| Aircraft | B738/M-SDE2E3FGHIRWXY/LB1 |
Departure
| Time | 2026-05-07 08:49 |
|---|---|
| Airport | Budapest Liszt Ferenc International Airport (LHBP) |
Arrival
| Time | 2026-05-07 10:35 |
|---|---|
| Airport | Amsterdam Airport Schiphol (EHAM) |
| Time | Latitude | Longitude | Altitude | Speed | Heading |
|---|---|---|---|---|---|
| 2026-05-07 08:25 | 47.43296 | 19.25701 | 480 ft | 0 kts | 39° |
| 2026-05-07 08:41 | 47.43291 | 19.25695 | 480 ft | 3 kts | 39° |
| 2026-05-07 08:42 | 47.43275 | 19.25676 | 480 ft | 3 kts | 39° |
| 2026-05-07 08:42 | 47.43259 | 19.25658 | 481 ft | 3 kts | 29° |
| 2026-05-07 08:42 | 47.43240 | 19.25645 | 472 ft | 3 kts | 13° |
| 2026-05-07 08:42 | 47.43221 | 19.25642 | 481 ft | 3 kts | 344° |
| 2026-05-07 08:43 | 47.43207 | 19.25653 | 481 ft | 1 kts | 311° |
| 2026-05-07 08:43 | 47.43205 | 19.25657 | 481 ft | 0 kts | 311° |
| 2026-05-07 08:45 | 47.43206 | 19.25654 | 478 ft | 1 kts | 311° |
| 2026-05-07 08:45 | 47.43216 | 19.25638 | 480 ft | 3 kts | 311° |
| 2026-05-07 08:45 | 47.43240 | 19.25598 | 477 ft | 7 kts | 311° |
| 2026-05-07 08:46 | 47.43281 | 19.25532 | 476 ft | 10 kts | 313° |
| 2026-05-07 08:46 | 47.43333 | 19.25439 | 480 ft | 13 kts | 298° |
| 2026-05-07 08:46 | 47.43298 | 19.25326 | 480 ft | 14 kts | 224° |
| 2026-05-07 08:46 | 47.43218 | 19.25217 | 484 ft | 17 kts | 222° |
| 2026-05-07 08:47 | 47.43139 | 19.25109 | 482 ft | 15 kts | 223° |
| 2026-05-07 08:47 | 47.43072 | 19.25012 | 483 ft | 8 kts | 243° |
| 2026-05-07 08:47 | 47.43094 | 19.24945 | 488 ft | 8 kts | 311° |
| 2026-05-07 08:47 | 47.43097 | 19.24939 | 490 ft | 0 kts | 312° |
| 2026-05-07 08:48 | 47.43141 | 19.24868 | 487 ft | 27 kts | 312° |
| 2026-05-07 08:48 | 47.43405 | 19.24444 | 482 ft | 85 kts | 312° |
| 2026-05-07 08:48 | 47.43927 | 19.23604 | 487 ft | 136 kts | 312° |
| 2026-05-07 08:48 | 47.44641 | 19.22463 | 695 ft | 158 kts | 312° |
| 2026-05-07 08:49 | 47.45396 | 19.21221 | 1168 ft | 168 kts | 308° |
| 2026-05-07 08:49 | 47.46180 | 19.19868 | 1713 ft | 175 kts | 310° |
| 2026-05-07 08:49 | 47.47009 | 19.18499 | 2317 ft | 186 kts | 311° |
| 2026-05-07 08:49 | 47.47945 | 19.17048 | 2779 ft | 203 kts | 312° |
| 2026-05-07 08:50 | 47.49026 | 19.15563 | 3285 ft | 221 kts | 317° |
| 2026-05-07 08:50 | 47.50279 | 19.14071 | 3828 ft | 242 kts | 319° |
| 2026-05-07 08:50 | 47.51619 | 19.12565 | 4707 ft | 251 kts | 320° |
| 2026-05-07 08:50 | 47.53033 | 19.10943 | 5513 ft | 260 kts | 319° |
| 2026-05-07 08:51 | 47.54467 | 19.09190 | 6282 ft | 272 kts | 317° |
| 2026-05-07 08:51 | 47.55927 | 19.07358 | 7195 ft | 277 kts | 317° |
| 2026-05-07 08:51 | 47.57416 | 19.05499 | 8092 ft | 282 kts | 317° |
| 2026-05-07 08:51 | 47.58938 | 19.03624 | 8980 ft | 287 kts | 317° |
| 2026-05-07 08:52 | 47.60495 | 19.01722 | 9851 ft | 292 kts | 318° |
| 2026-05-07 08:52 | 47.62096 | 18.99787 | 10504 ft | 306 kts | 321° |
| 2026-05-07 08:52 | 47.64099 | 18.98481 | 11006 ft | 327 kts | 348° |
| 2026-05-07 08:52 | 47.66425 | 18.98600 | 11509 ft | 347 kts | 14° |
| 2026-05-07 08:53 | 47.68613 | 19.00270 | 12058 ft | 362 kts | 39° |
| 2026-05-07 08:53 | 47.70526 | 19.02770 | 12789 ft | 369 kts | 43° |
| 2026-05-07 08:53 | 47.72400 | 19.05416 | 13602 ft | 374 kts | 44° |
| 2026-05-07 08:53 | 47.74282 | 19.08130 | 14405 ft | 379 kts | 44° |
| 2026-05-07 08:54 | 47.76269 | 19.10743 | 15199 ft | 384 kts | 33° |
| 2026-05-07 08:54 | 47.78713 | 19.12295 | 16027 ft | 385 kts | 10° |
| 2026-05-07 08:54 | 47.81376 | 19.12299 | 16814 ft | 386 kts | 346° |
| 2026-05-07 08:54 | 47.83814 | 19.10695 | 17568 ft | 385 kts | 321° |
| 2026-05-07 08:55 | 47.85768 | 19.08039 | 18266 ft | 388 kts | 312° |
| 2026-05-07 08:55 | 47.87603 | 19.05058 | 18959 ft | 391 kts | 309° |
| 2026-05-07 08:55 | 47.89393 | 19.01965 | 19651 ft | 395 kts | 309° |
| 2026-05-07 08:55 | 47.91227 | 18.98881 | 20328 ft | 400 kts | 310° |
| 2026-05-07 08:56 | 47.93136 | 18.95836 | 20985 ft | 404 kts | 311° |
| 2026-05-07 08:56 | 47.95091 | 18.92797 | 21634 ft | 408 kts | 311° |
| 2026-05-07 08:56 | 47.97054 | 18.89725 | 22242 ft | 411 kts | 311° |
| 2026-05-07 08:56 | 47.99020 | 18.86587 | 22830 ft | 414 kts | 310° |
| 2026-05-07 08:57 | 48.00978 | 18.83419 | 23410 ft | 417 kts | 310° |
| 2026-05-07 08:57 | 48.02961 | 18.80214 | 23954 ft | 421 kts | 310° |
| 2026-05-07 08:57 | 48.04984 | 18.77025 | 24516 ft | 424 kts | 311° |
| 2026-05-07 08:57 | 48.07021 | 18.73885 | 25031 ft | 427 kts | 311° |
| 2026-05-07 08:58 | 48.09098 | 18.70688 | 25524 ft | 430 kts | 311° |
| 2026-05-07 08:58 | 48.11178 | 18.67449 | 26003 ft | 432 kts | 311° |
| 2026-05-07 08:58 | 48.13260 | 18.64171 | 26453 ft | 435 kts | 311° |
| 2026-05-07 08:58 | 48.15348 | 18.60871 | 26891 ft | 438 kts | 311° |
| 2026-05-07 08:59 | 48.17450 | 18.57556 | 27298 ft | 440 kts | 311° |
| 2026-05-07 08:59 | 48.19572 | 18.54218 | 27691 ft | 443 kts | 311° |
| 2026-05-07 08:59 | 48.21705 | 18.50866 | 28067 ft | 445 kts | 311° |
| 2026-05-07 08:59 | 48.23848 | 18.47489 | 28435 ft | 448 kts | 311° |
| 2026-05-07 09:00 | 48.25271 | 18.45240 | 28660 ft | 449 kts | 311° |
| 2026-05-07 09:00 | 48.27428 | 18.41827 | 29008 ft | 451 kts | 311° |
| 2026-05-07 09:00 | 48.29593 | 18.38394 | 29345 ft | 454 kts | 311° |
| 2026-05-07 09:00 | 48.31769 | 18.34944 | 29653 ft | 456 kts | 311° |
| 2026-05-07 09:01 | 48.33957 | 18.31471 | 29963 ft | 458 kts | 311° |
| 2026-05-07 09:01 | 48.36124 | 18.28024 | 30271 ft | 460 kts | 311° |
| 2026-05-07 09:01 | 48.38319 | 18.24530 | 30695 ft | 458 kts | 311° |
| 2026-05-07 09:01 | 48.40535 | 18.20999 | 31138 ft | 456 kts | 310° |
| 2026-05-07 09:02 | 48.42679 | 18.17577 | 31554 ft | 455 kts | 310° |
| 2026-05-07 09:02 | 48.44845 | 18.14113 | 31968 ft | 454 kts | 310° |
| 2026-05-07 09:02 | 48.47005 | 18.10654 | 32375 ft | 452 kts | 310° |
| 2026-05-07 09:02 | 48.49157 | 18.07206 | 32763 ft | 451 kts | 310° |
| 2026-05-07 09:03 | 48.51302 | 18.03763 | 33149 ft | 450 kts | 310° |
| 2026-05-07 09:03 | 48.53444 | 18.00322 | 33517 ft | 449 kts | 310° |
| 2026-05-07 09:03 | 48.55578 | 17.96887 | 33879 ft | 448 kts | 310° |
| 2026-05-07 09:03 | 48.57702 | 17.93463 | 34242 ft | 447 kts | 310° |
| 2026-05-07 09:04 | 48.59824 | 17.90040 | 34591 ft | 446 kts | 310° |
| 2026-05-07 09:04 | 48.61941 | 17.86620 | 34918 ft | 445 kts | 310° |
| 2026-05-07 09:04 | 48.64050 | 17.83210 | 35234 ft | 444 kts | 310° |
| 2026-05-07 09:04 | 48.66156 | 17.79798 | 35532 ft | 444 kts | 310° |
| 2026-05-07 09:05 | 48.68262 | 17.76382 | 35822 ft | 443 kts | 310° |
| 2026-05-07 09:05 | 48.70337 | 17.73008 | 36105 ft | 443 kts | 310° |
| 2026-05-07 09:05 | 48.72439 | 17.69589 | 36383 ft | 443 kts | 310° |
| 2026-05-07 09:05 | 48.74537 | 17.66174 | 36653 ft | 443 kts | 310° |
| 2026-05-07 09:06 | 48.76633 | 17.62757 | 37001 ft | 440 kts | 310° |
| 2026-05-07 09:06 | 48.78710 | 17.59366 | 37391 ft | 437 kts | 310° |
| 2026-05-07 09:06 | 48.80774 | 17.55991 | 37683 ft | 435 kts | 309° |
| 2026-05-07 09:06 | 48.82838 | 17.52630 | 37921 ft | 435 kts | 310° |
| 2026-05-07 09:07 | 48.87207 | 17.46126 | 37959 ft | 443 kts | 314° |
| 2026-05-07 09:07 | 48.91637 | 17.39748 | 37957 ft | 439 kts | 313° |
| 2026-05-07 09:08 | 48.95951 | 17.33240 | 37954 ft | 436 kts | 312° |
| 2026-05-07 09:08 | 49.00285 | 17.26734 | 37956 ft | 437 kts | 311° |
| 2026-05-07 09:09 | 49.03796 | 17.19326 | 37986 ft | 431 kts | 296° |
| 2026-05-07 09:09 | 49.06715 | 17.11332 | 37969 ft | 431 kts | 295° |
| 2026-05-07 09:10 | 49.09597 | 17.03315 | 37967 ft | 431 kts | 296° |
| 2026-05-07 09:10 | 49.12495 | 16.95347 | 37961 ft | 432 kts | 296° |
| 2026-05-07 09:11 | 49.15404 | 16.87301 | 37945 ft | 432 kts | 296° |
| 2026-05-07 09:11 | 49.18294 | 16.79259 | 37950 ft | 432 kts | 295° |
| 2026-05-07 09:12 | 49.21188 | 16.71200 | 37948 ft | 432 kts | 295° |
| 2026-05-07 09:12 | 49.24081 | 16.63121 | 37959 ft | 433 kts | 295° |
| 2026-05-07 09:13 | 49.26961 | 16.55041 | 37955 ft | 432 kts | 295° |
| 2026-05-07 09:13 | 49.29633 | 16.47525 | 37953 ft | 433 kts | 295° |
| 2026-05-07 09:14 | 49.32321 | 16.39937 | 37950 ft | 433 kts | 295° |
| 2026-05-07 09:14 | 49.35199 | 16.31807 | 37956 ft | 434 kts | 295° |
| 2026-05-07 09:15 | 49.38068 | 16.23666 | 37951 ft | 433 kts | 295° |
| 2026-05-07 09:15 | 49.40927 | 16.15522 | 37951 ft | 434 kts | 295° |
| 2026-05-07 09:16 | 49.43790 | 16.07347 | 37950 ft | 434 kts | 295° |
| 2026-05-07 09:16 | 49.46645 | 15.99167 | 37960 ft | 435 kts | 295° |
| 2026-05-07 09:17 | 49.49501 | 15.90956 | 37966 ft | 436 kts | 295° |
| 2026-05-07 09:17 | 49.52360 | 15.82717 | 37959 ft | 436 kts | 295° |
| 2026-05-07 09:18 | 49.55203 | 15.74494 | 37959 ft | 435 kts | 295° |
| 2026-05-07 09:18 | 49.58025 | 15.66301 | 37953 ft | 436 kts | 295° |
| 2026-05-07 09:19 | 49.60865 | 15.58033 | 37955 ft | 436 kts | 295° |
| 2026-05-07 09:19 | 49.63713 | 15.49711 | 37961 ft | 440 kts | 295° |
| 2026-05-07 09:20 | 49.66573 | 15.41333 | 37970 ft | 441 kts | 295° |
| 2026-05-07 09:20 | 49.69419 | 15.32968 | 37954 ft | 440 kts | 295° |
| 2026-05-07 09:21 | 49.72255 | 15.24598 | 37953 ft | 440 kts | 295° |
| 2026-05-07 09:21 | 49.75096 | 15.16189 | 37953 ft | 442 kts | 295° |
| 2026-05-07 09:22 | 49.77931 | 15.07775 | 37951 ft | 440 kts | 295° |
| 2026-05-07 09:22 | 49.80754 | 14.99365 | 37956 ft | 441 kts | 295° |
| 2026-05-07 09:23 | 49.83556 | 14.90988 | 37941 ft | 441 kts | 295° |
| 2026-05-07 09:23 | 49.86376 | 14.82529 | 37943 ft | 442 kts | 295° |
| 2026-05-07 09:24 | 49.89191 | 14.74059 | 37945 ft | 442 kts | 295° |
| 2026-05-07 09:24 | 49.92001 | 14.65576 | 37938 ft | 442 kts | 295° |
| 2026-05-07 09:25 | 49.94808 | 14.57071 | 37938 ft | 443 kts | 295° |
| 2026-05-07 09:25 | 49.97610 | 14.48551 | 37933 ft | 443 kts | 295° |
| 2026-05-07 09:26 | 50.00407 | 14.40021 | 37942 ft | 443 kts | 295° |
| 2026-05-07 09:26 | 50.03201 | 14.31471 | 37946 ft | 444 kts | 295° |
| 2026-05-07 09:27 | 50.05991 | 14.22902 | 37944 ft | 444 kts | 295° |
| 2026-05-07 09:28 | 50.10145 | 14.10093 | 37962 ft | 444 kts | 294° |
| 2026-05-07 09:28 | 50.12922 | 14.01488 | 37960 ft | 445 kts | 294° |
| 2026-05-07 09:29 | 50.15695 | 13.92872 | 37946 ft | 444 kts | 294° |
| 2026-05-07 09:29 | 50.18454 | 13.84264 | 37953 ft | 443 kts | 294° |
| 2026-05-07 09:30 | 50.21210 | 13.75638 | 37951 ft | 445 kts | 294° |
| 2026-05-07 09:30 | 50.23965 | 13.66986 | 37946 ft | 444 kts | 294° |
| 2026-05-07 09:31 | 50.26701 | 13.58364 | 37955 ft | 443 kts | 294° |
| 2026-05-07 09:31 | 50.29416 | 13.49773 | 37954 ft | 444 kts | 294° |
| 2026-05-07 09:32 | 50.32145 | 13.41115 | 37949 ft | 443 kts | 294° |
| 2026-05-07 09:32 | 50.34868 | 13.32444 | 37948 ft | 444 kts | 294° |
| 2026-05-07 09:33 | 50.37587 | 13.23753 | 37947 ft | 444 kts | 294° |
| 2026-05-07 09:33 | 50.40300 | 13.15054 | 37970 ft | 444 kts | 294° |
| 2026-05-07 09:34 | 50.43006 | 13.06343 | 37966 ft | 444 kts | 294° |
| 2026-05-07 09:34 | 50.45683 | 12.97690 | 37956 ft | 444 kts | 294° |
| 2026-05-07 09:35 | 50.48379 | 12.88961 | 37962 ft | 444 kts | 294° |
| 2026-05-07 09:35 | 50.51146 | 12.80278 | 37959 ft | 445 kts | 295° |
| 2026-05-07 09:36 | 50.53918 | 12.71596 | 37944 ft | 444 kts | 295° |
| 2026-05-07 09:36 | 50.56653 | 12.62878 | 37953 ft | 444 kts | 295° |
| 2026-05-07 09:37 | 50.59391 | 12.54162 | 37946 ft | 445 kts | 295° |
| 2026-05-07 09:37 | 50.62128 | 12.45439 | 37952 ft | 444 kts | 295° |
| 2026-05-07 09:38 | 50.64855 | 12.36695 | 37950 ft | 445 kts | 294° |
| 2026-05-07 09:38 | 50.67575 | 12.27944 | 37958 ft | 444 kts | 294° |
| 2026-05-07 09:39 | 50.70289 | 12.19187 | 37961 ft | 444 kts | 294° |
| 2026-05-07 09:39 | 50.73000 | 12.10404 | 37957 ft | 445 kts | 294° |
| 2026-05-07 09:40 | 50.75682 | 12.01688 | 37953 ft | 444 kts | 294° |
| 2026-05-07 09:40 | 50.78375 | 11.92902 | 37953 ft | 445 kts | 294° |
| 2026-05-07 09:41 | 50.81064 | 11.84094 | 37960 ft | 444 kts | 294° |
| 2026-05-07 09:41 | 50.83745 | 11.75287 | 37965 ft | 444 kts | 294° |
| 2026-05-07 09:42 | 50.86421 | 11.66458 | 37976 ft | 445 kts | 294° |
| 2026-05-07 09:42 | 50.89088 | 11.57633 | 37980 ft | 444 kts | 294° |
| 2026-05-07 09:43 | 50.91747 | 11.48802 | 37977 ft | 444 kts | 294° |
| 2026-05-07 09:43 | 50.94400 | 11.39951 | 37978 ft | 444 kts | 294° |
| 2026-05-07 09:44 | 50.97030 | 11.31153 | 37978 ft | 444 kts | 294° |
| 2026-05-07 09:44 | 50.99668 | 11.22292 | 37980 ft | 444 kts | 294° |
| 2026-05-07 09:45 | 51.02299 | 11.13425 | 37982 ft | 444 kts | 294° |
| 2026-05-07 09:45 | 51.04923 | 11.04542 | 37981 ft | 444 kts | 294° |
| 2026-05-07 09:46 | 51.07539 | 10.95659 | 37980 ft | 444 kts | 294° |
| 2026-05-07 09:46 | 51.10148 | 10.86763 | 37984 ft | 444 kts | 294° |
| 2026-05-07 09:47 | 51.12750 | 10.77861 | 37987 ft | 444 kts | 294° |
| 2026-05-07 09:47 | 51.15349 | 10.68936 | 37987 ft | 443 kts | 294° |
| 2026-05-07 09:48 | 51.17919 | 10.60078 | 37990 ft | 443 kts | 294° |
| 2026-05-07 09:48 | 51.20502 | 10.51142 | 37989 ft | 443 kts | 294° |
| 2026-05-07 09:49 | 51.23077 | 10.42197 | 37994 ft | 443 kts | 293° |
| 2026-05-07 09:49 | 51.25634 | 10.33253 | 37996 ft | 443 kts | 293° |
| 2026-05-07 09:50 | 51.28045 | 10.24196 | 38000 ft | 443 kts | 291° |
| 2026-05-07 09:50 | 51.30401 | 10.15106 | 38009 ft | 443 kts | 292° |
| 2026-05-07 09:51 | 51.32814 | 10.06049 | 38005 ft | 443 kts | 292° |
| 2026-05-07 09:51 | 51.35188 | 9.97029 | 38006 ft | 443 kts | 291° |
| 2026-05-07 09:52 | 51.37557 | 9.87941 | 38004 ft | 442 kts | 291° |
| 2026-05-07 09:52 | 51.39932 | 9.78842 | 38008 ft | 442 kts | 291° |
| 2026-05-07 09:53 | 51.42296 | 9.69742 | 38008 ft | 442 kts | 291° |
| 2026-05-07 09:53 | 51.44648 | 9.60639 | 38006 ft | 442 kts | 291° |
| 2026-05-07 09:54 | 51.46998 | 9.51516 | 38003 ft | 442 kts | 291° |
| 2026-05-07 09:54 | 51.48942 | 9.43940 | 38010 ft | 442 kts | 291° |
| 2026-05-07 09:55 | 51.51278 | 9.34796 | 38013 ft | 442 kts | 291° |
| 2026-05-07 09:55 | 51.53983 | 9.24170 | 38013 ft | 442 kts | 291° |
| 2026-05-07 09:56 | 51.55925 | 9.16509 | 38013 ft | 442 kts | 291° |
| 2026-05-07 09:56 | 51.58225 | 9.07402 | 38016 ft | 442 kts | 291° |
| 2026-05-07 09:57 | 51.60529 | 8.98239 | 38024 ft | 442 kts | 291° |
| 2026-05-07 09:57 | 51.62827 | 8.89063 | 38025 ft | 442 kts | 291° |
| 2026-05-07 09:58 | 51.65120 | 8.79872 | 38036 ft | 442 kts | 291° |
| 2026-05-07 09:58 | 51.67403 | 8.70681 | 38031 ft | 441 kts | 291° |
| 2026-05-07 09:59 | 51.69674 | 8.61497 | 38033 ft | 441 kts | 291° |
| 2026-05-07 09:59 | 51.71925 | 8.52357 | 38031 ft | 441 kts | 291° |
| 2026-05-07 10:00 | 51.74181 | 8.43161 | 38037 ft | 441 kts | 291° |
| 2026-05-07 10:00 | 51.76434 | 8.33955 | 38039 ft | 441 kts | 292° |
| 2026-05-07 10:01 | 51.79287 | 8.25176 | 38048 ft | 442 kts | 298° |
| 2026-05-07 10:01 | 51.82266 | 8.16417 | 37427 ft | 451 kts | 298° |
| 2026-05-07 10:01 | 51.83780 | 8.11964 | 36668 ft | 449 kts | 298° |
| 2026-05-07 10:02 | 51.85274 | 8.07545 | 35913 ft | 446 kts | 298° |
| 2026-05-07 10:02 | 51.86756 | 8.03143 | 35131 ft | 444 kts | 298° |
| 2026-05-07 10:02 | 51.88226 | 7.98769 | 34353 ft | 443 kts | 298° |
| 2026-05-07 10:02 | 51.89698 | 7.94387 | 33542 ft | 443 kts | 298° |
| 2026-05-07 10:03 | 51.91160 | 7.90029 | 33009 ft | 438 kts | 298° |
| 2026-05-07 10:03 | 51.92613 | 7.85693 | 32453 ft | 437 kts | 298° |
| 2026-05-07 10:03 | 51.94058 | 7.81371 | 31906 ft | 436 kts | 298° |
| 2026-05-07 10:03 | 51.95500 | 7.77051 | 31351 ft | 435 kts | 298° |
| 2026-05-07 10:04 | 51.96935 | 7.72746 | 30803 ft | 433 kts | 298° |
| 2026-05-07 10:04 | 51.98364 | 7.68448 | 30222 ft | 432 kts | 298° |
| 2026-05-07 10:04 | 51.99789 | 7.64156 | 29654 ft | 431 kts | 298° |
| 2026-05-07 10:04 | 52.01207 | 7.59876 | 29079 ft | 430 kts | 298° |
| 2026-05-07 10:05 | 52.02622 | 7.55600 | 28492 ft | 429 kts | 298° |
| 2026-05-07 10:05 | 52.04031 | 7.51334 | 27929 ft | 428 kts | 298° |
| 2026-05-07 10:05 | 52.05436 | 7.47074 | 27325 ft | 427 kts | 298° |
| 2026-05-07 10:05 | 52.06836 | 7.42820 | 26730 ft | 426 kts | 298° |
| 2026-05-07 10:06 | 52.08209 | 7.38641 | 26142 ft | 425 kts | 298° |
| 2026-05-07 10:06 | 52.09604 | 7.34389 | 25535 ft | 424 kts | 298° |
| 2026-05-07 10:06 | 52.10989 | 7.30159 | 24933 ft | 423 kts | 297° |
| 2026-05-07 10:06 | 52.12364 | 7.25952 | 24311 ft | 419 kts | 297° |
| 2026-05-07 10:07 | 52.13719 | 7.21802 | 23714 ft | 410 kts | 297° |
| 2026-05-07 10:07 | 52.15040 | 7.17748 | 23105 ft | 401 kts | 297° |
| 2026-05-07 10:07 | 52.16331 | 7.13781 | 22511 ft | 393 kts | 297° |
| 2026-05-07 10:07 | 52.17460 | 7.09808 | 22101 ft | 379 kts | 291° |
| 2026-05-07 10:08 | 52.18420 | 7.05807 | 21359 ft | 378 kts | 291° |
| 2026-05-07 10:08 | 52.19348 | 7.01809 | 20736 ft | 377 kts | 290° |
| 2026-05-07 10:08 | 52.20246 | 6.97810 | 20322 ft | 374 kts | 290° |
| 2026-05-07 10:08 | 52.21131 | 6.93833 | 19889 ft | 372 kts | 290° |
| 2026-05-07 10:09 | 52.22015 | 6.89889 | 19458 ft | 369 kts | 290° |
| 2026-05-07 10:09 | 52.22900 | 6.85976 | 19024 ft | 367 kts | 290° |
| 2026-05-07 10:09 | 52.23776 | 6.82110 | 18781 ft | 359 kts | 290° |
| 2026-05-07 10:09 | 52.24626 | 6.78343 | 18563 ft | 350 kts | 290° |
| 2026-05-07 10:10 | 52.25457 | 6.74642 | 18375 ft | 341 kts | 290° |
| 2026-05-07 10:10 | 52.26261 | 6.71049 | 18114 ft | 335 kts | 290° |
| 2026-05-07 10:10 | 52.27055 | 6.67495 | 17762 ft | 332 kts | 290° |
| 2026-05-07 10:10 | 52.27832 | 6.64014 | 17390 ft | 329 kts | 290° |
| 2026-05-07 10:11 | 52.28614 | 6.60508 | 17000 ft | 327 kts | 290° |
| 2026-05-07 10:11 | 52.29390 | 6.57023 | 16609 ft | 325 kts | 290° |
| 2026-05-07 10:11 | 52.30159 | 6.53561 | 16211 ft | 323 kts | 290° |
| 2026-05-07 10:11 | 52.30923 | 6.50119 | 15813 ft | 321 kts | 290° |
| 2026-05-07 10:12 | 52.31681 | 6.46693 | 15398 ft | 320 kts | 290° |
| 2026-05-07 10:12 | 52.32435 | 6.43284 | 14991 ft | 318 kts | 290° |
| 2026-05-07 10:12 | 52.33184 | 6.39893 | 14580 ft | 316 kts | 290° |
| 2026-05-07 10:12 | 52.33927 | 6.36520 | 14166 ft | 314 kts | 290° |
| 2026-05-07 10:13 | 52.34665 | 6.33168 | 13748 ft | 312 kts | 290° |
| 2026-05-07 10:13 | 52.35396 | 6.29838 | 13327 ft | 310 kts | 290° |
| 2026-05-07 10:13 | 52.36123 | 6.26525 | 12902 ft | 308 kts | 290° |
| 2026-05-07 10:13 | 52.36844 | 6.23228 | 12482 ft | 306 kts | 290° |
| 2026-05-07 10:14 | 52.37558 | 6.19963 | 12056 ft | 305 kts | 290° |
| 2026-05-07 10:14 | 52.38270 | 6.16705 | 11629 ft | 303 kts | 290° |
| 2026-05-07 10:14 | 52.38976 | 6.13465 | 11198 ft | 301 kts | 290° |
| 2026-05-07 10:14 | 52.39677 | 6.10246 | 10756 ft | 299 kts | 290° |
| 2026-05-07 10:15 | 52.40371 | 6.07049 | 10360 ft | 297 kts | 290° |
| 2026-05-07 10:15 | 52.41048 | 6.03925 | 10129 ft | 288 kts | 290° |
| 2026-05-07 10:15 | 52.41715 | 6.00847 | 9778 ft | 285 kts | 290° |
| 2026-05-07 10:15 | 52.42375 | 5.97794 | 9399 ft | 284 kts | 290° |
| 2026-05-07 10:16 | 52.43033 | 5.94747 | 9017 ft | 283 kts | 290° |
| 2026-05-07 10:16 | 52.43681 | 5.91742 | 8643 ft | 282 kts | 290° |
| 2026-05-07 10:16 | 52.44330 | 5.88727 | 8279 ft | 280 kts | 290° |
| 2026-05-07 10:16 | 52.44976 | 5.85723 | 7913 ft | 278 kts | 290° |
| 2026-05-07 10:17 | 52.45617 | 5.82739 | 7545 ft | 277 kts | 290° |
| 2026-05-07 10:17 | 52.46256 | 5.79761 | 7189 ft | 275 kts | 290° |
| 2026-05-07 10:17 | 52.46885 | 5.76817 | 7109 ft | 273 kts | 290° |
| 2026-05-07 10:17 | 52.47518 | 5.73855 | 7100 ft | 277 kts | 290° |
| 2026-05-07 10:18 | 52.48153 | 5.70881 | 7094 ft | 276 kts | 290° |
| 2026-05-07 10:18 | 52.48785 | 5.67914 | 7091 ft | 275 kts | 290° |
| 2026-05-07 10:18 | 52.49416 | 5.64942 | 7092 ft | 276 kts | 290° |
| 2026-05-07 10:18 | 52.50047 | 5.61972 | 7089 ft | 276 kts | 290° |
| 2026-05-07 10:19 | 52.50557 | 5.58947 | 7085 ft | 276 kts | 277° |
| 2026-05-07 10:19 | 52.50458 | 5.55847 | 7094 ft | 277 kts | 256° |
| 2026-05-07 10:19 | 52.49692 | 5.52948 | 7103 ft | 278 kts | 240° |
| 2026-05-07 10:19 | 52.48707 | 5.50214 | 7094 ft | 278 kts | 239° |
| 2026-05-07 10:20 | 52.47691 | 5.47509 | 7090 ft | 278 kts | 238° |
| 2026-05-07 10:20 | 52.46677 | 5.44812 | 7097 ft | 278 kts | 239° |
| 2026-05-07 10:20 | 52.45673 | 5.42110 | 7040 ft | 277 kts | 239° |
| 2026-05-07 10:20 | 52.44680 | 5.39414 | 6838 ft | 274 kts | 239° |
| 2026-05-07 10:21 | 52.43695 | 5.36736 | 6444 ft | 274 kts | 239° |
| 2026-05-07 10:21 | 52.42711 | 5.34066 | 6087 ft | 273 kts | 239° |
| 2026-05-07 10:21 | 52.41729 | 5.31412 | 5728 ft | 272 kts | 239° |
| 2026-05-07 10:21 | 52.40753 | 5.28780 | 5385 ft | 270 kts | 239° |
| 2026-05-07 10:22 | 52.39778 | 5.26152 | 5028 ft | 269 kts | 239° |
| 2026-05-07 10:22 | 52.38811 | 5.23547 | 4688 ft | 267 kts | 239° |
| 2026-05-07 10:22 | 52.37846 | 5.20950 | 4338 ft | 266 kts | 239° |
| 2026-05-07 10:22 | 52.36885 | 5.18370 | 4118 ft | 264 kts | 239° |
| 2026-05-07 10:23 | 52.35929 | 5.15808 | 4099 ft | 266 kts | 239° |
| 2026-05-07 10:23 | 52.34963 | 5.13217 | 4058 ft | 266 kts | 239° |
| 2026-05-07 10:23 | 52.34007 | 5.10653 | 3810 ft | 263 kts | 239° |
| 2026-05-07 10:23 | 52.33042 | 5.08120 | 3399 ft | 262 kts | 236° |
| 2026-05-07 10:24 | 52.32039 | 5.05636 | 3059 ft | 261 kts | 238° |
| 2026-05-07 10:24 | 52.31066 | 5.03139 | 3028 ft | 263 kts | 238° |
| 2026-05-07 10:24 | 52.30084 | 5.00607 | 3012 ft | 263 kts | 238° |
| 2026-05-07 10:24 | 52.29106 | 4.98086 | 3018 ft | 263 kts | 238° |
| 2026-05-07 10:25 | 52.28125 | 4.95556 | 3013 ft | 264 kts | 238° |
| 2026-05-07 10:25 | 52.27145 | 4.93030 | 3006 ft | 263 kts | 238° |
| 2026-05-07 10:25 | 52.26169 | 4.90515 | 3004 ft | 261 kts | 238° |
| 2026-05-07 10:25 | 52.25202 | 4.88026 | 3003 ft | 259 kts | 238° |
| 2026-05-07 10:26 | 52.24255 | 4.85587 | 3005 ft | 258 kts | 238° |
| 2026-05-07 10:26 | 52.23285 | 4.83086 | 3007 ft | 257 kts | 238° |
| 2026-05-07 10:26 | 52.22338 | 4.80648 | 3009 ft | 257 kts | 238° |
| 2026-05-07 10:26 | 52.21383 | 4.78189 | 2978 ft | 256 kts | 238° |
| 2026-05-07 10:27 | 52.20441 | 4.75763 | 2832 ft | 251 kts | 238° |
| 2026-05-07 10:27 | 52.19512 | 4.73372 | 2520 ft | 249 kts | 238° |
| 2026-05-07 10:27 | 52.18585 | 4.70993 | 2223 ft | 248 kts | 238° |
| 2026-05-07 10:27 | 52.17659 | 4.68628 | 2044 ft | 246 kts | 238° |
| 2026-05-07 10:28 | 52.16730 | 4.66263 | 2013 ft | 248 kts | 238° |
| 2026-05-07 10:28 | 52.15802 | 4.63902 | 2020 ft | 247 kts | 238° |
| 2026-05-07 10:28 | 52.14875 | 4.61540 | 2007 ft | 248 kts | 238° |
| 2026-05-07 10:28 | 52.13949 | 4.59179 | 2005 ft | 246 kts | 238° |
| 2026-05-07 10:29 | 52.13035 | 4.56850 | 2005 ft | 243 kts | 238° |
| 2026-05-07 10:29 | 52.12131 | 4.54546 | 2003 ft | 240 kts | 238° |
| 2026-05-07 10:29 | 52.11349 | 4.52169 | 1996 ft | 238 kts | 255° |
| 2026-05-07 10:30 | 52.12149 | 4.47275 | 2015 ft | 236 kts | 317° |
| 2026-05-07 10:30 | 52.13597 | 4.46036 | 2017 ft | 234 kts | 349° |
| 2026-05-07 10:30 | 52.15178 | 4.46220 | 2031 ft | 233 kts | 19° |
| 2026-05-07 10:30 | 52.16644 | 4.47348 | 2014 ft | 234 kts | 30° |
| 2026-05-07 10:31 | 52.18037 | 4.48705 | 2012 ft | 233 kts | 31° |
| 2026-05-07 10:31 | 52.19416 | 4.50089 | 2005 ft | 233 kts | 32° |
| 2026-05-07 10:31 | 52.20579 | 4.51886 | 2014 ft | 232 kts | 56° |
| 2026-05-07 10:31 | 52.21420 | 4.54156 | 2013 ft | 235 kts | 59° |
| 2026-05-07 10:32 | 52.22251 | 4.56408 | 2000 ft | 226 kts | 58° |
| 2026-05-07 10:32 | 52.23057 | 4.58511 | 2010 ft | 210 kts | 57° |
| 2026-05-07 10:32 | 52.23799 | 4.60435 | 1869 ft | 198 kts | 57° |
| 2026-05-07 10:32 | 52.24514 | 4.62287 | 1596 ft | 186 kts | 57° |
| 2026-05-07 10:33 | 52.25174 | 4.64001 | 1400 ft | 171 kts | 57° |
| 2026-05-07 10:33 | 52.25809 | 4.65648 | 1141 ft | 167 kts | 57° |
| 2026-05-07 10:33 | 52.26404 | 4.67195 | 918 ft | 158 kts | 57° |
| 2026-05-07 10:33 | 52.26978 | 4.68687 | 713 ft | 152 kts | 57° |
| 2026-05-07 10:34 | 52.27536 | 4.70137 | 517 ft | 150 kts | 57° |
| 2026-05-07 10:34 | 52.28086 | 4.71570 | 321 ft | 148 kts | 57° |
| 2026-05-07 10:34 | 52.28632 | 4.72990 | 122 ft | 146 kts | 57° |
| 2026-05-07 10:34 | 52.29161 | 4.74371 | 13 ft | 139 kts | 57° |
| 2026-05-07 10:35 | 52.29619 | 4.75558 | -2 ft | 86 kts | 58° |
| 2026-05-07 10:35 | 52.29830 | 4.76111 | -5 ft | 49 kts | 57° |
| 2026-05-07 10:35 | 52.29975 | 4.76469 | -3 ft | 25 kts | 45° |
| 2026-05-07 10:35 | 52.30107 | 4.76606 | -2 ft | 15 kts | 27° |
| 2026-05-07 10:36 | 52.30149 | 4.76642 | -2 ft | 0 kts | 27° |
| 2026-05-07 10:36 | 52.30150 | 4.76643 | -2 ft | 0 kts | 27° |
| 2026-05-07 10:37 | 52.30173 | 4.76662 | -2 ft | 8 kts | 27° |
| 2026-05-07 10:37 | 52.30242 | 4.76721 | -2 ft | 12 kts | 27° |
| 2026-05-07 10:37 | 52.30329 | 4.76725 | -2 ft | 13 kts | 343° |
| 2026-05-07 10:37 | 52.30395 | 4.76785 | -2 ft | 12 kts | 55° |
| 2026-05-07 10:38 | 52.30442 | 4.76903 | -2 ft | 13 kts | 57° |
| 2026-05-07 10:38 | 52.30498 | 4.76965 | -2 ft | 6 kts | 353° |
| 2026-05-07 10:38 | 52.30507 | 4.76960 | -2 ft | 0 kts | 333° |
| 2026-05-07 10:38 | 52.30507 | 4.76955 | -2 ft | 1 kts | 302° |
| 2026-05-07 10:39 | 52.30518 | 4.76907 | -2 ft | 8 kts | 291° |
| 2026-05-07 10:39 | 52.30541 | 4.76818 | -2 ft | 6 kts | 292° |
| 2026-05-07 10:39 | 52.30544 | 4.76807 | -2 ft | 0 kts | 293° |